createdAt,value
2023-04-07T00:00:24.258Z,57.60
2023-04-07T00:02:50.741Z,57.50
2023-04-07T00:05:17.372Z,57.48
2023-04-07T00:07:52.941Z,57.60
2023-04-07T00:10:22.090Z,58.09
2023-04-07T00:12:48.566Z,58.31
2023-04-07T00:15:15.043Z,58.16
2023-04-07T00:17:41.520Z,57.21
2023-04-07T00:20:08.547Z,57.76
2023-04-07T00:22:35.102Z,58.13
2023-04-07T00:25:01.590Z,57.61
2023-04-07T00:27:28.192Z,57.22
2023-04-07T00:29:54.650Z,56.80
2023-04-07T00:32:22.263Z,56.32
2023-04-07T00:34:48.704Z,56.60
2023-04-07T00:37:15.192Z,56.73
2023-04-07T00:39:41.858Z,57.21
2023-04-07T00:42:08.456Z,56.92
2023-04-07T00:44:34.926Z,56.86
2023-04-07T00:47:01.649Z,56.60
2023-04-07T00:49:28.685Z,56.54
2023-04-07T00:51:57.136Z,56.71
2023-04-07T00:54:24.216Z,55.94
2023-04-07T00:56:51.050Z,56.96
2023-04-07T00:59:17.907Z,56.61
2023-04-07T01:02:10.449Z,56.79
2023-04-07T01:04:47.335Z,57.84
2023-04-07T01:07:27.400Z,57.63
2023-04-07T01:10:06.246Z,57.73
2023-04-07T01:12:56.106Z,57.79
2023-04-07T01:15:27.501Z,57.51
2023-04-07T01:18:00.923Z,58.07
2023-04-07T01:20:32.711Z,57.76
2023-04-07T01:23:05.008Z,57.98
2023-04-07T01:25:52.949Z,58.26
2023-04-07T01:28:56.981Z,58.89
2023-04-07T01:31:26.593Z,59.13
2023-04-07T01:33:56.167Z,59.16
2023-04-07T01:36:23.667Z,59.80
2023-04-07T01:38:51.388Z,60.31
2023-04-07T01:41:18.923Z,60.33
2023-04-07T01:43:47.174Z,60.17
2023-04-07T01:46:14.860Z,60.91
2023-04-07T01:48:42.251Z,60.64
2023-04-07T01:51:10.364Z,60.85
2023-04-07T01:53:38.382Z,61.38
2023-04-07T01:56:05.493Z,61.21
2023-04-07T01:58:31.972Z,61.57
2023-04-07T02:00:58.750Z,61.41
2023-04-07T02:03:38.303Z,61.83
2023-04-07T02:06:08.511Z,61.52
2023-04-07T02:08:38.264Z,61.60
2023-04-07T02:11:06.455Z,61.74
2023-04-07T02:13:35.097Z,61.79
2023-04-07T02:16:02.286Z,61.86
2023-04-07T02:18:31.396Z,61.95
2023-04-07T02:20:59.469Z,62.35
2023-04-07T02:23:26.001Z,62.60
2023-04-07T02:25:56.594Z,62.77
2023-04-07T02:28:23.245Z,62.20
2023-04-07T02:30:49.712Z,62.69
2023-04-07T02:33:16.179Z,62.74
2023-04-07T02:35:42.689Z,63.18
2023-04-07T02:38:09.161Z,63.33
2023-04-07T02:40:35.762Z,63.53
2023-04-07T02:43:02.403Z,63.27
2023-04-07T02:45:28.851Z,63.62
2023-04-07T02:47:55.384Z,63.19
2023-04-07T02:50:21.958Z,63.52
2023-04-07T02:52:48.401Z,63.42
2023-04-07T02:55:14.898Z,63.68
2023-04-07T02:57:41.350Z,63.80
2023-04-07T03:00:08.488Z,63.92
2023-04-07T03:02:35.106Z,64.14
2023-04-07T03:05:01.708Z,63.96
2023-04-07T03:07:28.288Z,63.85
2023-04-07T03:09:54.832Z,64.01
2023-04-07T03:12:21.253Z,64.12
2023-04-07T03:14:47.785Z,64.73
2023-04-07T03:17:14.942Z,63.98
2023-04-07T03:19:41.386Z,64.44
2023-04-07T03:22:07.859Z,64.06
2023-04-07T03:24:34.343Z,64.34
2023-04-07T03:27:00.780Z,64.59
2023-04-07T03:29:27.224Z,64.51
2023-04-07T03:31:53.704Z,64.49
2023-04-07T03:34:20.157Z,64.53
2023-04-07T03:36:46.721Z,64.08
2023-04-07T03:39:13.184Z,64.19
2023-04-07T03:41:39.672Z,64.17
2023-04-07T03:44:06.202Z,63.68
2023-04-07T03:46:32.745Z,63.78
2023-04-07T03:48:59.273Z,63.91
2023-04-07T03:51:26.373Z,64.11
2023-04-07T03:53:53.131Z,64.04
2023-04-07T03:56:20.050Z,64.22
2023-04-07T03:58:46.625Z,64.67
2023-04-07T04:01:13.306Z,65.46
2023-04-07T04:03:39.947Z,66.39
2023-04-07T04:06:06.695Z,67.57
2023-04-07T04:08:33.184Z,68.09
2023-04-07T04:10:59.611Z,68.53
2023-04-07T04:13:26.061Z,68.88
2023-04-07T04:15:52.520Z,69.03
2023-04-07T04:18:19.068Z,68.79
2023-04-07T04:20:45.560Z,68.97
2023-04-07T04:23:11.978Z,69.73
2023-04-07T04:25:38.420Z,69.03
2023-04-07T04:28:05.257Z,68.89
2023-04-07T04:30:31.684Z,68.96
2023-04-07T04:32:58.304Z,69.94
2023-04-07T04:35:24.801Z,70.40
2023-04-07T04:37:51.312Z,70.45
2023-04-07T04:40:17.902Z,69.89
2023-04-07T04:42:44.403Z,70.18
2023-04-07T04:45:11.017Z,70.05
2023-04-07T04:47:37.498Z,70.20
2023-04-07T04:50:04.283Z,69.94
2023-04-07T04:52:30.723Z,69.97
2023-04-07T04:54:57.250Z,69.59
2023-04-07T04:57:23.790Z,70.45
2023-04-07T04:59:50.224Z,70.10
2023-04-07T05:02:16.691Z,70.57
2023-04-07T05:04:43.421Z,70.32
2023-04-07T05:07:09.981Z,70.17
2023-04-07T05:09:36.444Z,70.41
2023-04-07T05:12:02.924Z,70.26
2023-04-07T05:14:29.378Z,70.28
2023-04-07T05:16:55.832Z,70.48
2023-04-07T05:19:22.342Z,70.59
2023-04-07T05:21:48.773Z,69.82
2023-04-07T05:24:15.201Z,70.47
2023-04-07T05:26:41.773Z,69.85
2023-04-07T05:29:08.239Z,68.98
2023-04-07T05:31:34.765Z,69.32
2023-04-07T05:34:01.267Z,68.89
2023-04-07T05:36:27.803Z,69.17
2023-04-07T05:38:54.304Z,68.90
2023-04-07T05:41:20.771Z,69.18
2023-04-07T05:43:47.200Z,69.39
2023-04-07T05:46:13.740Z,68.29
2023-04-07T05:48:40.278Z,68.61
2023-04-07T05:51:06.715Z,68.27
2023-04-07T05:53:33.183Z,67.66
2023-04-07T05:55:59.663Z,68.09
2023-04-07T05:58:26.146Z,66.96
2023-04-07T06:00:52.602Z,66.91
2023-04-07T06:03:19.242Z,66.74
2023-04-07T06:05:47.197Z,66.76
2023-04-07T06:08:13.824Z,65.95
2023-04-07T06:10:40.315Z,66.47
2023-04-07T06:13:06.848Z,65.93
2023-04-07T06:15:33.321Z,66.24
2023-04-07T06:17:59.814Z,66.27
2023-04-07T06:20:26.275Z,66.56
2023-04-07T06:22:52.726Z,66.19
2023-04-07T06:25:19.173Z,66.29
2023-04-07T06:27:45.690Z,66.64
2023-04-07T06:30:12.608Z,66.94
2023-04-07T06:32:39.082Z,67.16
2023-04-07T06:35:05.825Z,66.42
2023-04-07T06:37:32.293Z,66.40
2023-04-07T06:39:58.766Z,66.37
2023-04-07T06:42:25.249Z,67.10
2023-04-07T06:44:51.743Z,66.69
2023-04-07T06:47:18.234Z,66.33
2023-04-07T06:49:44.674Z,66.37
2023-04-07T06:52:11.177Z,66.17
2023-04-07T06:54:37.710Z,66.06
2023-04-07T06:57:04.194Z,65.42
2023-04-07T06:59:30.644Z,65.74
2023-04-07T07:01:57.189Z,66.24
2023-04-07T07:04:23.870Z,66.31
2023-04-07T07:06:50.462Z,65.25
2023-04-07T07:09:16.952Z,65.42
2023-04-07T07:11:43.387Z,66.96
2023-04-07T07:14:09.894Z,64.66
2023-04-07T07:16:36.353Z,65.29
2023-04-07T07:19:02.786Z,64.96
2023-04-07T07:21:29.219Z,64.82
2023-04-07T07:23:55.672Z,65.54
2023-04-07T07:26:22.135Z,65.31
2023-04-07T07:28:48.670Z,65.95
2023-04-07T07:31:15.249Z,65.12
2023-04-07T07:33:42.306Z,64.43
2023-04-07T07:36:08.834Z,65.83
2023-04-07T07:38:37.063Z,65.84
2023-04-07T07:41:04.331Z,65.65
2023-04-07T07:43:30.850Z,65.29
2023-04-07T07:45:57.551Z,65.57
2023-04-07T07:48:24.122Z,65.57
2023-04-07T07:50:51.295Z,65.75
2023-04-07T07:53:17.924Z,65.88
2023-04-07T07:55:45.846Z,66.11
2023-04-07T07:58:12.319Z,66.17
2023-04-07T08:00:38.779Z,65.01
2023-04-07T08:03:05.330Z,65.67
2023-04-07T08:05:31.914Z,65.92
2023-04-07T08:07:58.552Z,67.22
2023-04-07T08:10:25.044Z,67.09
2023-04-07T08:12:52.679Z,66.67
2023-04-07T08:15:19.274Z,67.05
2023-04-07T08:17:45.767Z,66.09
2023-04-07T08:20:12.413Z,65.40
2023-04-07T08:22:38.893Z,66.17
2023-04-07T08:25:05.569Z,66.48
2023-04-07T08:27:32.057Z,66.68
2023-04-07T08:30:00.375Z,69.04
2023-04-07T08:32:34.820Z,71.04
2023-04-07T08:35:01.270Z,69.71
2023-04-07T08:37:27.780Z,69.91
2023-04-07T08:39:54.214Z,70.77
2023-04-07T08:42:25.670Z,71.01
2023-04-07T08:44:53.839Z,71.39
2023-04-07T08:47:21.251Z,71.37
2023-04-07T08:49:52.549Z,72.29
2023-04-07T08:52:23.185Z,72.46
2023-04-07T08:54:50.029Z,72.92
2023-04-07T08:57:17.472Z,72.41
2023-04-07T08:59:44.332Z,70.87
2023-04-07T09:02:11.008Z,72.82
2023-04-07T09:04:37.747Z,71.79
2023-04-07T09:07:04.189Z,71.00
2023-04-07T09:09:30.647Z,71.69
2023-04-07T09:11:57.171Z,70.90
2023-04-07T09:14:23.620Z,72.15
2023-04-07T09:16:50.156Z,65.29
2023-04-07T09:19:16.651Z,63.50
2023-04-07T09:21:51.358Z,63.36
2023-04-07T09:24:29.510Z,62.67
2023-04-07T09:27:18.934Z,64.29
2023-04-07T09:29:47.031Z,62.64
2023-04-07T09:32:34.979Z,60.17
2023-04-07T09:35:01.518Z,60.71
2023-04-07T09:37:27.948Z,61.19
2023-04-07T09:39:54.416Z,59.60
2023-04-07T09:42:21.192Z,60.89
2023-04-07T09:44:47.707Z,61.18
2023-04-07T09:47:14.287Z,62.77
2023-04-07T09:49:54.634Z,60.27
2023-04-07T09:52:25.576Z,61.16
2023-04-07T09:54:53.135Z,60.74
2023-04-07T09:57:20.921Z,60.83
2023-04-07T09:59:49.115Z,61.80
2023-04-07T10:02:16.030Z,63.28
2023-04-07T10:04:42.661Z,61.46
2023-04-07T10:07:09.122Z,61.35
2023-04-07T10:09:35.679Z,60.40
2023-04-07T10:12:03.011Z,60.54
2023-04-07T10:14:32.696Z,61.46
2023-04-07T10:17:03.936Z,60.82
2023-04-07T10:19:35.006Z,60.63
2023-04-07T10:22:05.122Z,61.01
2023-04-07T10:24:34.291Z,60.90
2023-04-07T10:27:04.888Z,60.95
2023-04-07T10:29:37.676Z,61.24
2023-04-07T10:32:04.695Z,61.79
2023-04-07T10:34:52.239Z,61.47
2023-04-07T10:37:19.281Z,62.02
2023-04-07T10:39:45.926Z,61.37
2023-04-07T10:42:49.322Z,61.62
2023-04-07T10:45:15.824Z,60.68
2023-04-07T10:48:04.061Z,60.81
2023-04-07T10:50:30.620Z,62.14
2023-04-07T10:53:14.072Z,61.52
2023-04-07T10:55:47.246Z,61.28
2023-04-07T10:58:18.995Z,61.75
2023-04-07T11:01:08.713Z,62.40
2023-04-07T11:03:39.950Z,62.24
2023-04-07T11:06:11.122Z,61.71
2023-04-07T11:08:39.470Z,60.93
2023-04-07T11:11:07.518Z,60.74
2023-04-07T11:13:44.170Z,61.50
2023-04-07T11:16:10.895Z,60.91
2023-04-07T11:18:38.424Z,61.72
2023-04-07T11:21:05.408Z,61.89
2023-04-07T11:23:39.456Z,61.76
2023-04-07T11:26:06.375Z,60.30
2023-04-07T11:28:33.017Z,60.66
2023-04-07T11:30:59.563Z,61.18
2023-04-07T11:33:31.426Z,60.94
2023-04-07T11:36:00.033Z,61.61
2023-04-07T11:38:35.862Z,61.73
2023-04-07T11:41:14.808Z,60.57
2023-04-07T11:43:41.765Z,61.72
2023-04-07T11:46:18.647Z,61.79
2023-04-07T11:48:45.917Z,61.31
2023-04-07T11:51:21.032Z,61.15
2023-04-07T11:53:47.650Z,62.53
2023-04-07T11:56:16.198Z,63.59
2023-04-07T11:58:50.741Z,62.86
2023-04-07T12:01:17.289Z,63.89
2023-04-07T12:04:04.260Z,62.46
2023-04-07T12:06:33.255Z,63.39
2023-04-07T12:08:59.784Z,64.09
2023-04-07T12:11:26.432Z,63.77
2023-04-07T12:13:52.913Z,65.08
2023-04-07T12:16:20.522Z,63.76
2023-04-07T12:18:47.088Z,66.06
2023-04-07T12:21:13.541Z,65.90
2023-04-07T12:23:40.021Z,65.56
2023-04-07T12:26:06.579Z,65.48
2023-04-07T12:28:33.348Z,66.35
2023-04-07T12:30:59.847Z,67.11
2023-04-07T12:33:26.334Z,66.87
2023-04-07T12:35:52.934Z,66.80
2023-04-07T12:38:19.445Z,66.29
2023-04-07T12:40:45.899Z,66.32
2023-04-07T12:43:12.406Z,66.15
2023-04-07T12:45:38.897Z,66.59
2023-04-07T12:48:05.526Z,66.81
2023-04-07T12:50:32.102Z,64.78
2023-04-07T12:52:58.588Z,65.01
2023-04-07T12:55:25.357Z,65.00
2023-04-07T12:57:51.828Z,65.57
2023-04-07T13:00:18.337Z,65.34
2023-04-07T13:02:44.996Z,64.40
2023-04-07T13:05:11.503Z,64.62
2023-04-07T13:07:37.999Z,65.05
2023-04-07T13:10:04.934Z,65.53
2023-04-07T13:12:31.484Z,65.57
2023-04-07T13:15:00.454Z,64.23
2023-04-07T13:17:27.581Z,65.48
2023-04-07T13:19:54.503Z,65.56
2023-04-07T13:22:22.148Z,63.50
2023-04-07T13:24:48.763Z,63.81
2023-04-07T13:27:15.190Z,64.08
2023-04-07T13:29:41.625Z,63.15
2023-04-07T13:32:09.302Z,62.85
2023-04-07T13:34:37.160Z,63.17
2023-04-07T13:37:04.773Z,63.66
2023-04-07T13:39:32.903Z,63.39
2023-04-07T13:41:59.527Z,64.07
2023-04-07T13:44:27.662Z,63.53
2023-04-07T13:46:57.074Z,63.46
2023-04-07T13:49:23.567Z,63.58
2023-04-07T13:51:50.066Z,63.43
2023-04-07T13:54:17.108Z,63.26
2023-04-07T13:56:43.601Z,63.41
2023-04-07T13:59:10.214Z,63.21
2023-04-07T14:01:36.839Z,62.15
2023-04-07T14:04:03.554Z,62.28
2023-04-07T14:06:30.089Z,61.74
2023-04-07T14:08:56.554Z,62.14
2023-04-07T14:11:23.206Z,62.11
2023-04-07T14:13:50.976Z,61.69
2023-04-07T14:16:17.731Z,61.35
2023-04-07T14:18:44.726Z,62.66
2023-04-07T14:21:11.165Z,61.64
2023-04-07T14:23:38.010Z,63.27
2023-04-07T14:26:04.583Z,62.52
2023-04-07T14:28:31.069Z,62.41
2023-04-07T14:30:57.637Z,62.33
2023-04-07T14:33:24.994Z,62.34
2023-04-07T14:35:51.479Z,61.49
2023-04-07T14:38:17.970Z,62.15
2023-04-07T14:40:44.425Z,62.67
2023-04-07T14:43:10.909Z,61.35
2023-04-07T14:45:38.078Z,61.93
2023-04-07T14:48:04.796Z,62.39
2023-04-07T14:50:34.027Z,62.33
2023-04-07T14:53:01.785Z,61.68
2023-04-07T14:55:28.286Z,61.55
2023-04-07T14:57:54.727Z,62.50
2023-04-07T15:00:21.294Z,62.48
2023-04-07T15:02:48.127Z,63.29
2023-04-07T15:05:14.740Z,63.43
2023-04-07T15:07:41.234Z,62.55
2023-04-07T15:10:08.007Z,63.68
2023-04-07T15:12:34.471Z,63.25
2023-04-07T15:15:00.907Z,63.77
2023-04-07T15:17:40.185Z,63.84
2023-04-07T15:20:10.203Z,63.25
2023-04-07T15:22:36.669Z,64.05
2023-04-07T15:25:03.242Z,63.62
2023-04-07T15:27:29.878Z,64.39
2023-04-07T15:29:56.332Z,64.86
2023-04-07T15:32:22.779Z,63.75
2023-04-07T15:34:49.703Z,63.18
2023-04-07T15:37:16.173Z,63.56
2023-04-07T15:39:42.668Z,64.11
2023-04-07T15:42:09.106Z,64.40
2023-04-07T15:44:35.690Z,64.75
2023-04-07T15:47:02.226Z,63.05
2023-04-07T15:49:28.829Z,63.80
2023-04-07T15:51:55.294Z,64.52
2023-04-07T15:54:21.740Z,64.50
2023-04-07T15:56:48.190Z,63.42
2023-04-07T15:59:14.608Z,65.35
2023-04-07T16:01:41.225Z,65.04
2023-04-07T16:04:07.940Z,65.64
2023-04-07T16:06:34.507Z,65.15
2023-04-07T16:09:00.925Z,64.66
2023-04-07T16:11:27.438Z,65.04
2023-04-07T16:13:53.961Z,63.98
2023-04-07T16:16:20.505Z,63.83
2023-04-07T16:18:47.077Z,65.23
2023-04-07T16:21:14.242Z,64.33
2023-04-07T16:23:40.699Z,64.74
2023-04-07T16:26:07.207Z,65.06
2023-04-07T16:28:33.640Z,63.70
2023-04-07T16:31:00.130Z,64.02
2023-04-07T16:33:26.615Z,64.78
2023-04-07T16:35:53.099Z,65.36
2023-04-07T16:38:19.615Z,64.18
2023-04-07T16:41:00.632Z,65.98
2023-04-07T16:43:29.506Z,64.63
2023-04-07T16:45:56.007Z,64.01
2023-04-07T16:48:22.543Z,64.90
2023-04-07T16:50:48.991Z,62.28
2023-04-07T16:53:15.494Z,64.80
2023-04-07T16:55:41.964Z,63.41
2023-04-07T16:58:08.430Z,63.46
2023-04-07T17:00:34.967Z,63.19
2023-04-07T17:03:01.541Z,62.64
2023-04-07T17:05:28.269Z,63.05
2023-04-07T17:07:56.160Z,62.62
2023-04-07T17:10:23.714Z,63.96
2023-04-07T17:12:50.148Z,63.55
2023-04-07T17:15:16.730Z,62.73
2023-04-07T17:17:43.189Z,63.05
2023-04-07T17:20:10.250Z,62.35
2023-04-07T17:22:36.714Z,62.90
2023-04-07T17:25:05.425Z,62.66
2023-04-07T17:27:31.917Z,62.49
2023-04-07T17:29:58.414Z,62.93
2023-04-07T17:32:24.959Z,62.95
2023-04-07T17:34:51.481Z,63.00
2023-04-07T17:37:17.962Z,63.55
2023-04-07T17:39:44.414Z,62.92
2023-04-07T17:42:10.863Z,64.18
2023-04-07T17:44:37.435Z,62.57
2023-04-07T17:47:03.892Z,63.10
2023-04-07T17:49:30.316Z,62.85
2023-04-07T17:51:56.780Z,63.63
2023-04-07T17:54:23.205Z,62.80
2023-04-07T17:56:49.685Z,63.70
2023-04-07T17:59:16.165Z,63.66
2023-04-07T18:01:42.693Z,63.05
2023-04-07T18:04:09.306Z,62.70
2023-04-07T18:06:35.855Z,63.59
2023-04-07T18:09:02.304Z,63.14
2023-04-07T18:11:28.798Z,62.32
2023-04-07T18:13:55.248Z,63.59
2023-04-07T18:16:22.463Z,63.74
2023-04-07T18:18:49.338Z,62.50
2023-04-07T18:21:15.872Z,63.36
2023-04-07T18:23:42.352Z,62.93
2023-04-07T18:26:08.793Z,63.05
2023-04-07T18:28:35.335Z,62.56
2023-04-07T18:31:06.408Z,63.04
2023-04-07T18:33:33.638Z,64.07
2023-04-07T18:36:03.215Z,64.02
2023-04-07T18:38:29.936Z,63.04
2023-04-07T18:40:56.473Z,62.95
2023-04-07T18:43:23.052Z,63.54
2023-04-07T18:45:49.525Z,62.93
2023-04-07T18:48:15.996Z,62.84
2023-04-07T18:50:42.517Z,62.81
2023-04-07T18:53:09.149Z,62.60
2023-04-07T18:55:35.602Z,63.44
2023-04-07T18:58:02.114Z,62.23
2023-04-07T19:00:28.585Z,64.40
2023-04-07T19:02:55.145Z,63.12
2023-04-07T19:05:23.802Z,63.28
2023-04-07T19:07:52.144Z,64.09
2023-04-07T19:10:18.708Z,64.16
2023-04-07T19:12:45.201Z,64.41
2023-04-07T19:15:11.747Z,63.56
2023-04-07T19:17:38.403Z,64.48
2023-04-07T19:20:05.750Z,64.34
2023-04-07T19:22:32.216Z,64.46
2023-04-07T19:24:58.677Z,64.32
2023-04-07T19:27:25.225Z,64.24
2023-04-07T19:29:51.704Z,65.00
2023-04-07T19:32:18.197Z,64.69
2023-04-07T19:34:44.697Z,64.70
2023-04-07T19:37:11.155Z,65.49
2023-04-07T19:39:37.617Z,65.52
2023-04-07T19:42:04.192Z,66.10
2023-04-07T19:44:30.674Z,66.44
2023-04-07T19:46:57.368Z,66.54
2023-04-07T19:49:23.826Z,66.54
2023-04-07T19:51:52.457Z,66.71
2023-04-07T19:54:18.937Z,65.33
2023-04-07T19:56:45.388Z,66.62
2023-04-07T19:59:11.873Z,65.91
2023-04-07T20:01:38.439Z,66.28
2023-04-07T20:04:05.156Z,66.41
2023-04-07T20:06:33.861Z,66.04
2023-04-07T20:09:00.406Z,65.34
2023-04-07T20:11:26.862Z,65.26
2023-04-07T20:13:53.320Z,64.64
2023-04-07T20:16:19.816Z,63.93
2023-04-07T20:18:46.409Z,64.69
2023-04-07T20:21:13.539Z,64.62
2023-04-07T20:23:40.084Z,64.93
2023-04-07T20:26:06.576Z,64.62
2023-04-07T20:28:33.091Z,65.66
2023-04-07T20:30:59.653Z,66.45
2023-04-07T20:33:26.207Z,66.70
2023-04-07T20:35:52.744Z,65.90
2023-04-07T20:38:19.238Z,66.36
2023-04-07T20:40:45.756Z,68.09
2023-04-07T20:43:12.368Z,68.63
2023-04-07T20:45:38.878Z,68.58
2023-04-07T20:48:05.470Z,67.70
2023-04-07T20:50:32.005Z,66.96
2023-04-07T20:52:58.445Z,67.59
2023-04-07T20:55:24.933Z,67.51
2023-04-07T20:57:51.412Z,68.30
2023-04-07T21:00:19.044Z,68.91
2023-04-07T21:02:45.822Z,68.85
2023-04-07T21:05:12.469Z,69.20
2023-04-07T21:07:38.997Z,68.82
2023-04-07T21:10:06.021Z,69.45
2023-04-07T21:12:32.474Z,69.79
2023-04-07T21:14:59.023Z,71.42
2023-04-07T21:17:25.523Z,71.20
2023-04-07T21:19:51.983Z,71.11
2023-04-07T21:22:18.427Z,71.33
2023-04-07T21:24:44.893Z,71.43
2023-04-07T21:27:11.336Z,69.90
2023-04-07T21:29:37.825Z,70.66
2023-04-07T21:32:04.381Z,71.40
2023-04-07T21:34:30.859Z,71.96
2023-04-07T21:36:57.304Z,70.92
2023-04-07T21:39:23.792Z,71.23
2023-04-07T21:41:50.269Z,72.18
2023-04-07T21:44:16.727Z,72.49
2023-04-07T21:46:43.217Z,72.46
2023-04-07T21:49:09.668Z,72.29
2023-04-07T21:51:36.131Z,72.10
2023-04-07T21:54:02.580Z,71.86
2023-04-07T21:56:29.260Z,71.55
2023-04-07T21:58:55.769Z,71.75
2023-04-07T22:01:22.262Z,72.99
2023-04-07T22:03:48.796Z,72.91
2023-04-07T22:06:15.312Z,73.29
2023-04-07T22:08:48.876Z,73.94
2023-04-07T22:11:21.272Z,73.77
2023-04-07T22:13:47.743Z,72.73
2023-04-07T22:16:14.308Z,73.42
2023-04-07T22:18:40.821Z,74.15
2023-04-07T22:21:07.342Z,72.73
2023-04-07T22:23:33.810Z,73.77
2023-04-07T22:26:00.275Z,74.40
2023-04-07T22:28:26.742Z,73.90
2023-04-07T22:30:53.152Z,73.80
2023-04-07T22:33:19.566Z,73.82
2023-04-07T22:35:46.058Z,73.95
2023-04-07T22:38:12.596Z,73.95
2023-04-07T22:40:39.138Z,73.93
2023-04-07T22:43:05.629Z,74.25
2023-04-07T22:45:32.092Z,73.98
2023-04-07T22:47:58.650Z,73.95
2023-04-07T22:50:25.185Z,74.09
2023-04-07T22:52:51.703Z,74.11
2023-04-07T22:55:18.240Z,73.38
2023-04-07T22:57:44.709Z,73.70
2023-04-07T23:00:12.060Z,74.35
2023-04-07T23:02:38.754Z,74.69
2023-04-07T23:05:05.912Z,74.70
2023-04-07T23:07:32.405Z,75.40
2023-04-07T23:09:58.830Z,75.17
2023-04-07T23:12:25.278Z,74.77
2023-04-07T23:14:52.289Z,75.22
2023-04-07T23:17:18.777Z,75.16
2023-04-07T23:19:45.228Z,75.23
2023-04-07T23:22:11.721Z,75.19
2023-04-07T23:24:38.377Z,75.05
2023-04-07T23:27:04.899Z,75.48
2023-04-07T23:29:31.825Z,74.31
2023-04-07T23:31:58.454Z,74.25
2023-04-07T23:34:25.135Z,74.82
2023-04-07T23:36:51.578Z,75.71
2023-04-07T23:39:18.067Z,75.45
2023-04-07T23:41:44.610Z,75.62
2023-04-07T23:44:11.064Z,76.39
2023-04-07T23:46:37.494Z,75.30
2023-04-07T23:49:03.991Z,75.61
2023-04-07T23:51:30.468Z,76.62
2023-04-07T23:53:56.942Z,76.25
2023-04-07T23:56:23.440Z,76.83
2023-04-07T23:58:50.076Z,76.55
